createdAt,value
2022-11-07T00:02:05.925Z,5.70
2022-11-07T00:04:34.051Z,5.40
2022-11-07T00:07:02.071Z,5.63
2022-11-07T00:09:29.662Z,5.32
2022-11-07T00:11:57.541Z,6.82
2022-11-07T00:14:25.563Z,7.07
2022-11-07T00:16:53.620Z,6.90
2022-11-07T00:19:22.421Z,6.05
2022-11-07T00:21:50.166Z,7.20
2022-11-07T00:24:18.595Z,6.90
2022-11-07T00:26:46.947Z,10.25
2022-11-07T00:29:20.262Z,19.95
2022-11-07T00:31:48.700Z,11.43
2022-11-07T00:34:16.624Z,6.20
2022-11-07T00:36:44.224Z,5.65
2022-11-07T00:39:12.154Z,6.10
2022-11-07T00:41:39.632Z,6.78
2022-11-07T00:44:07.200Z,7.03
2022-11-07T00:46:34.777Z,6.78
2022-11-07T00:49:02.302Z,6.20
2022-11-07T00:51:29.802Z,6.15
2022-11-07T00:53:57.543Z,5.90
2022-11-07T00:56:25.881Z,5.88
2022-11-07T00:58:57.143Z,6.47
2022-11-07T01:01:31.406Z,6.60
2022-11-07T01:04:17.733Z,6.63
2022-11-07T01:06:46.379Z,6.45
2022-11-07T01:09:22.042Z,7.13
2022-11-07T01:11:49.993Z,6.60
2022-11-07T01:14:20.127Z,6.90
2022-11-07T01:16:47.690Z,6.30
2022-11-07T01:19:15.379Z,6.47
2022-11-07T01:21:43.426Z,6.35
2022-11-07T01:24:12.701Z,6.15
2022-11-07T01:26:41.709Z,6.07
2022-11-07T01:29:09.855Z,6.45
2022-11-07T01:31:37.425Z,6.03
2022-11-07T01:34:05.312Z,5.95
2022-11-07T01:36:33.002Z,5.28
2022-11-07T01:39:00.575Z,5.10
2022-11-07T01:41:31.317Z,5.20
2022-11-07T01:44:02.934Z,5.50
2022-11-07T01:46:34.238Z,5.15
2022-11-07T01:49:04.499Z,5.03
2022-11-07T01:51:37.155Z,5.00
2022-11-07T01:54:06.332Z,5.30
2022-11-07T01:56:37.189Z,4.72
2022-11-07T01:59:06.054Z,5.00
2022-11-07T02:01:33.887Z,4.68
2022-11-07T02:04:02.213Z,5.00
2022-11-07T02:06:55.685Z,4.82
2022-11-07T02:09:23.220Z,4.60
2022-11-07T02:11:51.736Z,4.15
2022-11-07T02:14:19.792Z,4.45
2022-11-07T02:16:49.798Z,4.50
2022-11-07T02:19:36.312Z,4.50
2022-11-07T02:22:40.652Z,4.47
2022-11-07T02:25:12.510Z,4.53
2022-11-07T02:27:41.909Z,4.22
2022-11-07T02:30:16.099Z,3.97
2022-11-07T02:32:44.355Z,4.53
2022-11-07T02:35:36.458Z,4.47
2022-11-07T02:38:27.956Z,4.72
2022-11-07T02:41:13.575Z,4.60
2022-11-07T02:43:52.773Z,4.63
2022-11-07T02:46:22.833Z,4.45
2022-11-07T02:48:54.606Z,4.55
2022-11-07T02:51:22.138Z,5.18
2022-11-07T02:53:49.701Z,4.88
2022-11-07T02:56:18.097Z,4.88
2022-11-07T02:58:48.636Z,4.93
2022-11-07T03:01:18.871Z,4.88
2022-11-07T03:03:48.960Z,4.85
2022-11-07T03:06:19.697Z,4.88
2022-11-07T03:08:47.731Z,4.95
2022-11-07T03:11:20.939Z,4.57
2022-11-07T03:13:49.829Z,5.22
2022-11-07T03:16:18.821Z,5.57
2022-11-07T03:18:46.421Z,5.72
2022-11-07T03:21:14.371Z,5.80
2022-11-07T03:23:41.915Z,5.30
2022-11-07T03:26:09.488Z,5.38
2022-11-07T03:28:37.056Z,5.47
2022-11-07T03:31:05.210Z,5.70
2022-11-07T03:33:32.768Z,5.00
2022-11-07T03:36:00.409Z,5.40
2022-11-07T03:38:28.145Z,5.35
2022-11-07T03:40:55.693Z,6.15
2022-11-07T03:43:24.412Z,5.80
2022-11-07T03:45:51.984Z,5.70
2022-11-07T03:48:19.454Z,6.00
2022-11-07T03:50:47.078Z,5.22
2022-11-07T03:53:16.458Z,5.90
2022-11-07T03:55:46.889Z,5.20
2022-11-07T03:58:14.483Z,6.03
2022-11-07T04:00:42.601Z,5.80
2022-11-07T04:03:10.284Z,5.95
2022-11-07T04:05:37.900Z,5.28
2022-11-07T04:08:05.834Z,5.65
2022-11-07T04:10:33.624Z,6.15
2022-11-07T04:13:19.882Z,6.40
2022-11-07T04:16:06.177Z,6.20
2022-11-07T04:18:35.978Z,7.07
2022-11-07T04:21:03.419Z,6.57
2022-11-07T04:23:31.109Z,6.47
2022-11-07T04:26:17.506Z,7.20
2022-11-07T04:28:45.150Z,6.97
2022-11-07T04:31:12.670Z,7.22
2022-11-07T04:33:40.211Z,7.47
2022-11-07T04:36:08.205Z,6.53
2022-11-07T04:38:35.952Z,7.10
2022-11-07T04:41:04.745Z,6.63
2022-11-07T04:43:32.418Z,6.78
2022-11-07T04:45:59.889Z,7.30
2022-11-07T04:48:27.426Z,7.10
2022-11-07T04:50:54.979Z,7.20
2022-11-07T04:53:22.425Z,6.93
2022-11-07T04:55:49.904Z,6.88
2022-11-07T04:58:17.964Z,7.65
2022-11-07T05:00:45.648Z,6.93
2022-11-07T05:03:13.628Z,7.22
2022-11-07T05:05:41.426Z,7.38
2022-11-07T05:08:09.069Z,6.90
2022-11-07T05:10:36.784Z,6.95
2022-11-07T05:13:04.230Z,6.65
2022-11-07T05:15:31.717Z,7.20
2022-11-07T05:17:59.201Z,7.88
2022-11-07T05:20:32.559Z,7.97
2022-11-07T05:23:13.575Z,8.10
2022-11-07T05:25:49.736Z,7.80
2022-11-07T05:28:33.675Z,7.75
2022-11-07T05:31:06.169Z,7.25
2022-11-07T05:33:34.342Z,6.82
2022-11-07T05:36:34.190Z,7.10
2022-11-07T05:39:01.737Z,7.25
2022-11-07T05:41:29.294Z,7.20
2022-11-07T05:43:59.842Z,7.35
2022-11-07T05:46:27.327Z,7.88
2022-11-07T05:48:59.739Z,7.53
2022-11-07T05:51:28.539Z,7.70
2022-11-07T05:53:56.065Z,7.50
2022-11-07T05:56:23.646Z,7.72
2022-11-07T05:58:51.236Z,7.68
2022-11-07T06:01:18.863Z,7.03
2022-11-07T06:03:46.441Z,6.78
2022-11-07T06:06:13.933Z,6.60
2022-11-07T06:08:41.473Z,6.32
2022-11-07T06:11:11.600Z,6.70
2022-11-07T06:13:39.129Z,6.85
2022-11-07T06:16:06.892Z,6.93
2022-11-07T06:18:41.419Z,6.47
2022-11-07T06:21:09.255Z,6.70
2022-11-07T06:23:36.836Z,6.55
2022-11-07T06:26:04.391Z,6.15
2022-11-07T06:28:32.006Z,6.60
2022-11-07T06:31:00.718Z,6.60
2022-11-07T06:34:24.264Z,6.78
2022-11-07T06:51:55.296Z,6.63
2022-11-07T06:55:25.617Z,6.80
2022-11-07T07:05:25.210Z,7.28
2022-11-07T07:08:02.023Z,7.10
2022-11-07T07:10:37.205Z,6.53
2022-11-07T07:13:05.114Z,6.85
2022-11-07T07:15:49.871Z,6.93
2022-11-07T07:18:20.064Z,6.70
2022-11-07T07:20:49.295Z,6.75
2022-11-07T07:23:18.780Z,6.38
2022-11-07T07:25:47.513Z,6.30
2022-11-07T07:28:15.219Z,6.15
2022-11-07T07:30:47.206Z,6.15
2022-11-07T07:33:18.536Z,6.28
2022-11-07T07:35:49.087Z,6.32
2022-11-07T07:38:23.862Z,5.90
2022-11-07T07:40:53.872Z,5.28
2022-11-07T07:43:21.367Z,5.60
2022-11-07T07:46:02.560Z,5.10
2022-11-07T07:48:31.270Z,5.03
2022-11-07T07:50:59.697Z,5.13
2022-11-07T07:53:32.883Z,3.97
2022-11-07T07:56:02.814Z,3.42
2022-11-07T07:58:30.287Z,3.67
2022-11-07T08:00:58.048Z,4.00
2022-11-07T08:03:32.175Z,3.33
2022-11-07T08:06:07.709Z,3.42
2022-11-07T08:08:38.192Z,3.50
2022-11-07T08:11:09.966Z,3.28
2022-11-07T08:13:37.439Z,2.92
2022-11-07T08:16:07.827Z,2.85
2022-11-07T08:18:40.069Z,2.72
2022-11-07T08:21:08.168Z,2.67
2022-11-07T08:23:36.162Z,3.22
2022-11-07T08:26:04.697Z,3.10
2022-11-07T08:28:35.441Z,2.97
2022-11-07T08:31:12.009Z,2.97
2022-11-07T08:33:40.102Z,2.70
2022-11-07T08:36:08.150Z,3.17
2022-11-07T08:38:36.221Z,2.60
2022-11-07T08:41:05.698Z,3.00
2022-11-07T08:43:33.289Z,3.17
2022-11-07T08:46:00.829Z,3.40
2022-11-07T08:48:28.453Z,2.88
2022-11-07T08:50:57.873Z,2.85
2022-11-07T08:53:27.124Z,3.35
2022-11-07T08:56:04.608Z,3.40
2022-11-07T08:58:32.947Z,3.90
2022-11-07T09:01:01.072Z,3.65
2022-11-07T09:03:45.227Z,3.80
2022-11-07T09:06:14.388Z,3.65
2022-11-07T09:08:41.971Z,3.95
2022-11-07T09:11:09.736Z,4.45
2022-11-07T09:13:37.385Z,4.05
2022-11-07T09:16:05.719Z,4.15
2022-11-07T09:18:33.620Z,4.40
2022-11-07T09:21:01.217Z,4.35
2022-11-07T09:23:28.925Z,4.18
2022-11-07T09:26:00.534Z,4.55
2022-11-07T09:28:28.808Z,4.25
2022-11-07T09:30:57.988Z,4.75
2022-11-07T09:33:26.266Z,4.82
2022-11-07T09:35:54.146Z,4.47
2022-11-07T09:38:21.783Z,4.60
2022-11-07T09:41:08.062Z,4.97
2022-11-07T09:43:35.675Z,5.00
2022-11-07T09:46:26.926Z,4.47
2022-11-07T09:49:00.880Z,5.28
2022-11-07T09:51:37.810Z,5.13
2022-11-07T09:54:15.144Z,4.75
2022-11-07T09:56:43.997Z,5.13
2022-11-07T09:59:34.030Z,5.43
2022-11-07T10:02:01.662Z,5.05
2022-11-07T10:04:29.252Z,5.70
2022-11-07T10:07:04.106Z,5.25
2022-11-07T10:09:55.775Z,5.60
2022-11-07T10:12:47.919Z,6.05
2022-11-07T10:15:39.532Z,6.10
2022-11-07T10:18:50.707Z,6.57
2022-11-07T10:21:39.496Z,6.38
2022-11-07T10:24:37.779Z,6.93
2022-11-07T10:27:10.456Z,6.25
2022-11-07T10:29:52.500Z,6.70
2022-11-07T10:32:35.865Z,6.10
2022-11-07T10:35:26.811Z,6.38
2022-11-07T10:38:00.417Z,6.53
2022-11-07T10:40:36.186Z,6.57
2022-11-07T10:43:07.728Z,6.53
2022-11-07T10:45:37.409Z,7.03
2022-11-07T10:48:05.791Z,6.72
2022-11-07T10:50:33.492Z,7.35
2022-11-07T10:53:05.546Z,7.05
2022-11-07T10:55:43.821Z,6.50
2022-11-07T10:58:21.695Z,7.13
2022-11-07T11:01:09.649Z,7.38
2022-11-07T11:03:45.355Z,7.22
2022-11-07T11:06:19.072Z,7.43
2022-11-07T11:08:48.148Z,6.95
2022-11-07T11:11:21.396Z,7.32
2022-11-07T11:13:49.392Z,7.30
2022-11-07T11:16:28.403Z,7.95
2022-11-07T11:19:01.179Z,7.40
2022-11-07T11:21:46.411Z,7.68
2022-11-07T11:24:23.690Z,7.63
2022-11-07T11:26:52.548Z,7.32
2022-11-07T11:29:27.090Z,8.10
2022-11-07T11:31:57.358Z,7.53
2022-11-07T11:34:58.609Z,7.53
2022-11-07T11:37:29.262Z,7.40
2022-11-07T11:40:09.412Z,7.55
2022-11-07T11:43:00.717Z,7.18
2022-11-07T11:45:39.972Z,7.35
2022-11-07T11:48:22.625Z,7.55
2022-11-07T11:50:54.300Z,8.07
2022-11-07T11:53:22.784Z,8.48
2022-11-07T11:56:25.514Z,8.20
2022-11-07T11:59:11.572Z,8.23
2022-11-07T12:01:47.515Z,7.85
2022-11-07T12:04:30.015Z,8.20
2022-11-07T12:07:32.773Z,8.15
2022-11-07T12:10:07.425Z,7.65
2022-11-07T12:13:09.640Z,7.55
2022-11-07T12:15:44.203Z,7.70
2022-11-07T12:18:41.408Z,8.27
2022-11-07T12:21:27.543Z,8.27
2022-11-07T12:24:16.452Z,8.23
2022-11-07T12:27:09.717Z,9.10
2022-11-07T12:29:55.508Z,8.57
2022-11-07T12:35:07.602Z,8.75
2022-11-07T12:38:19.946Z,9.07
2022-11-07T12:41:15.007Z,9.00
2022-11-07T12:43:42.571Z,8.38
2022-11-07T12:46:30.481Z,8.05
2022-11-07T12:48:57.960Z,8.50
2022-11-07T12:52:03.908Z,8.15
2022-11-07T12:54:49.695Z,8.30
2022-11-07T12:59:57.368Z,7.97
2022-11-07T13:02:37.817Z,8.43
2022-11-07T13:05:23.461Z,9.20
2022-11-07T13:08:00.457Z,8.48
2022-11-07T13:10:35.941Z,9.40
2022-11-07T13:13:07.285Z,8.85
2022-11-07T13:16:00.906Z,8.88
2022-11-07T13:18:27.826Z,9.20
2022-11-07T13:21:07.200Z,9.27
2022-11-07T13:23:34.749Z,8.57
2022-11-07T13:26:25.867Z,8.63
2022-11-07T13:29:01.239Z,8.65
2022-11-07T13:31:35.288Z,9.40
2022-11-07T13:34:25.246Z,9.15
2022-11-07T13:37:00.436Z,8.65
2022-11-07T13:39:30.009Z,9.57
2022-11-07T13:41:59.455Z,9.05
2022-11-07T13:44:32.416Z,9.07
2022-11-07T13:47:05.291Z,9.43
2022-11-07T13:49:44.491Z,9.23
2022-11-07T13:52:37.672Z,9.55
2022-11-07T13:55:11.210Z,9.50
2022-11-07T13:57:42.656Z,9.55
2022-11-07T14:00:14.955Z,8.93
2022-11-07T14:02:52.957Z,9.27
2022-11-07T14:05:36.256Z,9.88
2022-11-07T14:08:17.730Z,9.43
2022-11-07T14:10:47.854Z,10.20
2022-11-07T14:13:26.841Z,9.50
2022-11-07T14:15:58.797Z,9.73
2022-11-07T14:18:30.006Z,8.93
2022-11-07T14:20:59.112Z,9.48
2022-11-07T14:23:30.093Z,9.55
2022-11-07T14:26:16.867Z,9.52
2022-11-07T14:28:44.450Z,9.70
2022-11-07T14:31:29.660Z,9.52
2022-11-07T14:34:02.280Z,9.95
2022-11-07T14:36:31.419Z,9.98
2022-11-07T14:39:11.435Z,10.07
2022-11-07T14:41:44.769Z,10.32
2022-11-07T14:44:18.790Z,10.70
2022-11-07T14:46:47.696Z,10.38
2022-11-07T14:49:26.287Z,10.23
2022-11-07T14:51:55.749Z,9.95
2022-11-07T14:54:31.421Z,10.20
2022-11-07T14:57:00.370Z,10.43
2022-11-07T14:59:33.403Z,10.88
2022-11-07T15:02:13.556Z,10.60
2022-11-07T15:04:46.756Z,9.90
2022-11-07T15:07:35.428Z,10.27
2022-11-07T15:10:17.370Z,10.52
2022-11-07T15:12:56.286Z,10.15
2022-11-07T15:15:32.185Z,9.63
2022-11-07T15:18:03.084Z,10.48
2022-11-07T15:20:30.586Z,10.10
2022-11-07T15:22:59.189Z,9.60
2022-11-07T15:25:39.066Z,10.25
2022-11-07T15:28:18.882Z,10.45
2022-11-07T15:30:47.851Z,10.23
2022-11-07T15:33:21.670Z,10.20
2022-11-07T15:35:54.657Z,10.68
2022-11-07T15:38:27.939Z,10.48
2022-11-07T15:40:55.802Z,10.52
2022-11-07T15:43:23.550Z,12.57
2022-11-07T15:45:53.481Z,11.55
2022-11-07T15:48:24.135Z,11.82
2022-11-07T15:50:51.927Z,11.10
2022-11-07T15:53:27.709Z,10.63
2022-11-07T15:55:59.027Z,10.57
2022-11-07T15:58:29.461Z,9.90
2022-11-07T16:01:01.683Z,10.20
2022-11-07T16:03:29.559Z,11.05
2022-11-07T16:06:03.176Z,10.13
2022-11-07T16:08:33.533Z,10.88
2022-11-07T16:11:02.428Z,10.13
2022-11-07T16:13:30.128Z,10.27
2022-11-07T16:16:00.885Z,10.23
2022-11-07T16:18:35.081Z,10.23
2022-11-07T16:21:02.643Z,9.65
2022-11-07T16:23:30.234Z,10.98
2022-11-07T16:25:58.494Z,10.82
2022-11-07T16:28:30.634Z,11.10
2022-11-07T16:30:59.228Z,12.52
2022-11-07T16:33:27.679Z,13.35
2022-11-07T16:35:58.596Z,12.05
2022-11-07T16:38:31.334Z,13.25
2022-11-07T16:43:39.744Z,13.57
2022-11-07T16:46:17.404Z,13.77
2022-11-07T16:48:47.045Z,13.88
2022-11-07T16:51:16.287Z,14.13
2022-11-07T16:53:44.632Z,13.45
2022-11-07T16:56:22.327Z,13.93
2022-11-07T16:58:50.382Z,16.50
2022-11-07T17:01:18.105Z,15.07
2022-11-07T17:03:45.801Z,16.65
2022-11-07T17:06:31.740Z,17.52
2022-11-07T17:11:38.409Z,23.23
2022-11-07T17:14:05.995Z,25.08
2022-11-07T17:16:36.740Z,24.80
2022-11-07T17:19:05.573Z,22.85
2022-11-07T17:21:40.727Z,20.90
2022-11-07T17:24:08.546Z,21.10
2022-11-07T17:26:38.962Z,20.48
2022-11-07T17:29:21.284Z,20.33
2022-11-07T17:31:48.918Z,19.52
2022-11-07T17:34:16.496Z,18.88
2022-11-07T17:36:47.672Z,19.13
2022-11-07T17:39:18.046Z,17.83
2022-11-07T17:41:47.737Z,18.92
2022-11-07T17:44:18.769Z,19.33
2022-11-07T17:46:48.456Z,23.30
2022-11-07T17:49:18.792Z,20.30
2022-11-07T17:51:46.448Z,23.60
2022-11-07T17:54:15.426Z,23.30
2022-11-07T17:56:43.275Z,24.15
2022-11-07T17:59:17.843Z,22.70
2022-11-07T18:01:45.861Z,23.40
2022-11-07T18:04:14.008Z,22.48
2022-11-07T18:06:43.221Z,21.73
2022-11-07T18:09:14.674Z,21.27
2022-11-07T18:11:45.815Z,19.92
2022-11-07T18:14:14.642Z,20.85
2022-11-07T18:16:42.708Z,22.15
2022-11-07T18:19:11.148Z,20.52
2022-11-07T18:21:39.144Z,19.42
2022-11-07T18:24:07.119Z,16.88
2022-11-07T18:26:36.927Z,17.65
2022-11-07T18:29:07.450Z,16.70
2022-11-07T18:31:35.408Z,16.80
2022-11-07T18:34:06.630Z,16.38
2022-11-07T18:36:38.243Z,18.35
2022-11-07T18:39:08.756Z,18.25
2022-11-07T18:41:36.251Z,18.73
2022-11-07T18:44:05.258Z,17.02
2022-11-07T18:46:33.329Z,16.38
2022-11-07T18:49:00.883Z,17.85
2022-11-07T18:51:28.562Z,16.05
2022-11-07T18:53:56.286Z,16.00
2022-11-07T18:56:23.752Z,16.80
2022-11-07T18:58:51.461Z,15.52
2022-11-07T19:01:26.634Z,15.57
2022-11-07T19:03:56.022Z,16.08
2022-11-07T19:06:25.720Z,16.20
2022-11-07T19:08:53.405Z,15.52
2022-11-07T19:11:28.803Z,14.65
2022-11-07T19:13:59.734Z,15.02
2022-11-07T19:16:32.896Z,15.55
2022-11-07T19:19:00.402Z,15.55
2022-11-07T19:21:27.957Z,16.17
2022-11-07T19:23:55.515Z,15.70
2022-11-07T19:26:24.834Z,15.93
2022-11-07T19:28:54.145Z,15.30
2022-11-07T19:31:21.718Z,15.57
2022-11-07T19:33:49.276Z,14.93
2022-11-07T19:36:20.061Z,15.15
2022-11-07T19:38:48.638Z,15.20
2022-11-07T19:41:17.809Z,14.98
2022-11-07T19:43:49.986Z,14.80
2022-11-07T19:46:20.480Z,15.35
2022-11-07T19:48:49.116Z,14.82
2022-11-07T19:51:22.218Z,14.48
2022-11-07T19:53:58.285Z,15.70
2022-11-07T19:58:55.160Z,14.82
2022-11-07T20:01:26.008Z,14.98
2022-11-07T20:03:54.945Z,14.13
2022-11-07T20:06:25.944Z,13.88
2022-11-07T20:08:53.823Z,13.50
2022-11-07T20:11:24.044Z,14.48
2022-11-07T20:13:52.937Z,14.45
2022-11-07T20:16:21.108Z,15.13
2022-11-07T20:18:48.816Z,14.65
2022-11-07T20:21:23.077Z,14.48
2022-11-07T20:23:53.826Z,14.65
2022-11-07T20:26:23.262Z,14.68
2022-11-07T20:28:51.368Z,15.65
2022-11-07T20:31:21.681Z,15.43
2022-11-07T20:33:49.580Z,14.77
2022-11-07T20:36:18.130Z,14.88
2022-11-07T20:38:45.715Z,14.57
2022-11-07T20:41:14.486Z,15.60
2022-11-07T20:43:44.448Z,15.40
2022-11-07T20:46:15.101Z,14.40
2022-11-07T20:48:43.397Z,15.88
2022-11-07T20:51:16.710Z,14.10
2022-11-07T20:53:49.719Z,14.73
2022-11-07T20:56:25.094Z,14.35
2022-11-07T20:58:53.949Z,15.52
2022-11-07T21:01:25.109Z,16.73
2022-11-07T21:03:53.119Z,17.67
2022-11-07T21:06:20.858Z,16.88
2022-11-07T21:08:50.298Z,16.77
2022-11-07T21:11:18.118Z,14.98
2022-11-07T21:13:52.444Z,15.35
2022-11-07T21:16:22.087Z,15.85
2022-11-07T21:18:51.103Z,15.15
2022-11-07T21:21:27.610Z,14.52
2022-11-07T21:23:57.384Z,14.60
2022-11-07T21:26:31.771Z,14.88
2022-11-07T21:29:00.363Z,15.68
2022-11-07T21:31:31.326Z,14.55
2022-11-07T21:33:59.442Z,15.40
2022-11-07T21:36:29.422Z,14.68
2022-11-07T21:38:58.391Z,14.93
2022-11-07T21:41:26.583Z,14.10
2022-11-07T21:43:54.036Z,14.55
2022-11-07T21:46:27.345Z,15.15
2022-11-07T21:48:55.907Z,13.55
2022-11-07T21:51:23.276Z,13.77
2022-11-07T21:53:51.377Z,13.13
2022-11-07T21:56:24.926Z,13.68
2022-11-07T21:58:54.808Z,13.65
2022-11-07T22:01:22.847Z,13.68
2022-11-07T22:04:06.133Z,13.07
2022-11-07T22:06:36.653Z,13.23
2022-11-07T22:09:06.099Z,13.48
2022-11-07T22:11:33.746Z,12.80
2022-11-07T22:14:01.262Z,13.75
2022-11-07T22:16:29.031Z,13.30
2022-11-07T22:18:56.453Z,13.13
2022-11-07T22:21:23.980Z,13.02
2022-11-07T22:23:51.611Z,12.43
2022-11-07T22:26:21.719Z,12.63
2022-11-07T22:28:50.251Z,13.27
2022-11-07T22:31:27.046Z,12.52
2022-11-07T22:33:55.131Z,12.88
2022-11-07T22:36:23.517Z,11.77
2022-11-07T22:38:51.690Z,11.98
2022-11-07T22:41:21.865Z,11.98
2022-11-07T22:43:50.366Z,11.90
2022-11-07T22:46:20.767Z,11.57
2022-11-07T22:48:49.508Z,11.10
2022-11-07T22:51:23.197Z,11.63
2022-11-07T22:54:02.332Z,11.48
2022-11-07T22:56:30.975Z,11.23
2022-11-07T22:58:59.192Z,11.75
2022-11-07T23:01:29.942Z,11.93
2022-11-07T23:03:58.760Z,11.40
2022-11-07T23:06:28.634Z,10.90
2022-11-07T23:08:57.879Z,10.27
2022-11-07T23:14:18.710Z,10.30
2022-11-07T23:16:51.524Z,10.32
2022-11-07T23:19:21.656Z,9.93
2022-11-07T23:21:53.524Z,10.00
2022-11-07T23:24:21.290Z,9.75
2022-11-07T23:26:49.442Z,9.85
2022-11-07T23:29:20.043Z,9.20
2022-11-07T23:31:49.788Z,9.85
2022-11-07T23:34:19.167Z,9.93
2022-11-07T23:36:46.626Z,9.70
2022-11-07T23:39:16.590Z,10.25
2022-11-07T23:41:44.566Z,9.75
2022-11-07T23:44:12.801Z,9.75
2022-11-07T23:46:59.439Z,10.18
2022-11-07T23:49:55.622Z,13.75
2022-11-07T23:52:23.114Z,10.38
2022-11-07T23:55:08.800Z,12.35
2022-11-07T23:57:57.247Z,14.23
